Time;durP1;ratioP1;P1;durP2;ratioP2;P2;SDS_P1;SDS_P2;PMS_P1;PMS_P2;Temp;Humidity;BMP_temperature;BMP_pressure;BME280_temperature;BME280_humidity;BME280_pressure;Samples;Min_cycle;Max_cycle;Signal;HPM_P1;HPM_P2
2023/09/19 00:02:04;;;;;;;4.35;2.30;;;;;;;15.94;91.16;100296.41;5052182;28;20430;-76
2023/09/19 00:04:33;;;;;;;3.72;2.10;;;;;;;15.97;90.79;100306.56;5023155;28;20067;-76
2023/09/19 00:06:59;;;;;;;3.65;2.17;;;;;;;15.98;90.99;100298.16;5044343;28;20040;-76
2023/09/19 00:09:27;;;;;;;6.15;2.28;;;;;;;15.99;91.20;100294.34;5051837;28;20492;-75
2023/09/19 00:11:53;;;;;;;5.75;2.00;;;;;;;16.00;90.86;100295.94;5052937;28;20536;-75
2023/09/19 00:14:19;;;;;;;5.30;2.60;;;;;;;16.03;90.87;100300.69;5055569;28;20032;-75
2023/09/19 00:16:46;;;;;;;3.60;1.75;;;;;;;16.05;90.60;100297.69;5054154;28;20517;-75
2023/09/19 00:19:13;;;;;;;4.50;2.00;;;;;;;16.06;90.85;100299.28;5053864;28;20045;-74
2023/09/19 00:21:40;;;;;;;6.22;1.90;;;;;;;16.05;90.84;100301.19;5037500;28;20490;-75
2023/09/19 00:24:06;;;;;;;6.10;2.25;;;;;;;16.07;90.93;100295.47;5023002;28;20120;-75
2023/09/19 00:26:32;;;;;;;;;;;;;;;16.09;90.86;100315.66;5051164;28;20151;-75
2023/09/19 00:29:04;;;;;;;6.30;1.98;;;;;;;16.09;90.90;100315.66;5041904;28;20297;-75
2023/09/19 00:31:30;;;;;;;4.20;2.22;;;;;;;16.07;90.64;100301.66;5014505;28;20037;-75
2023/09/19 00:33:59;;;;;;;5.32;1.95;;;;;;;16.06;90.65;100305.47;5021081;28;20056;-75
2023/09/19 00:36:25;;;;;;;4.80;2.10;;;;;;;16.03;90.60;100295.28;5024572;28;20033;-76
2023/09/19 00:38:51;;;;;;;4.75;1.83;;;;;;;16.02;90.87;100307.22;5038911;28;20033;-76
2023/09/19 00:41:17;;;;;;;;;;;;;;;16.00;91.21;100309.44;5046483;28;20067;-77
2023/09/19 00:43:42;;;;;;;3.55;2.17;;;;;;;16.00;91.18;100306.75;5026441;28;19916;-74
2023/09/19 00:46:08;;;;;;;;;;;;;;;16.01;91.48;100308.34;5037692;28;20346;-76
2023/09/19 00:48:43;;;;;;;4.13;2.00;;;;;;;15.96;91.63;100313.88;5040073;28;20032;-77
2023/09/19 00:51:10;;;;;;;4.47;2.15;;;;;;;15.97;91.45;100304.66;5037623;28;20063;-75
2023/09/19 00:53:36;;;;;;;4.05;2.55;;;;;;;15.97;91.36;100304.66;5056276;28;20063;-77
2023/09/19 00:56:03;;;;;;;;;;;;;;;15.97;91.24;100304.66;5024461;23;20100;-86
2023/09/19 00:58:33;;;;;;;4.63;2.05;;;;;;;15.94;91.11;100305.31;5016262;28;20436;-88
2023/09/19 01:01:00;;;;;;;5.25;1.90;;;;;;;15.90;91.93;100317.84;5006090;28;20033;-86
2023/09/19 01:03:27;;;;;;;4.18;1.95;;;;;;;15.88;91.97;100314.66;5042009;28;20061;-87
2023/09/19 01:05:53;;;;;;;3.53;2.20;;;;;;;15.86;91.47;100316.09;5023105;28;20116;-87
2023/09/19 01:08:19;;;;;;;;;;;;;;;15.90;91.61;100317.84;5021363;28;20067;-86
2023/09/19 01:10:59;;;;;;;6.65;2.40;;;;;;;15.89;91.90;100316.25;5019380;28;20393;-86
2023/09/19 01:13:50;;;;;;;4.90;1.95;;;;;;;15.87;91.63;100315.00;5035864;28;20072;-87
2023/09/19 01:16:42;;;;;;;5.30;2.45;;;;;;;15.89;91.25;100321.66;5018892;28;20038;-87
2023/09/19 01:19:46;;;;;;;7.72;2.70;;;;;;;15.91;91.39;100332.94;5022245;28;20053;-85
2023/09/19 01:22:42;;;;;;;5.10;2.17;;;;;;;15.93;91.60;100328.03;5022442;28;20048;-88
2023/09/19 01:25:20;;;;;;;6.53;2.40;;;;;;;15.93;92.10;100332.63;5002909;28;20037;-85
2023/09/19 01:28:07;;;;;;;4.50;2.10;;;;;;;15.95;91.67;100342.00;5013958;28;20038;-87
2023/09/19 01:30:39;;;;;;;7.38;2.58;;;;;;;15.97;91.65;100334.38;5003094;28;20043;-85
2023/09/19 01:33:06;;;;;;;6.90;2.47;;;;;;;16.00;91.83;100332.97;5014731;28;20033;-84
2023/09/19 01:35:34;;;;;;;4.97;2.60;;;;;;;16.02;91.87;100346.94;5013530;28;20091;-88
2023/09/19 01:37:59;;;;;;;8.88;2.53;;;;;;;16.00;92.65;100341.84;4998427;28;20048;-85
2023/09/19 01:40:26;;;;;;;7.47;2.70;;;;;;;16.02;91.86;100347.72;5005479;28;20492;-85
2023/09/19 01:43:01;;;;;;;;;;;;;;;16.04;91.88;100339.31;5015559;28;20033;-84
2023/09/19 01:45:43;;;;;;;3.35;2.60;;;;;;;16.03;91.27;100341.22;5015024;28;19921;-84
2023/09/19 01:48:22;;;;;;;5.53;2.35;;;;;;;16.05;90.87;100324.69;5030315;28;20478;-85
2023/09/19 01:51:06;;;;;;;4.57;2.25;;;;;;;16.06;90.74;100334.41;4992992;28;20065;-87
2023/09/19 01:53:43;;;;;;;5.15;2.33;;;;;;;16.03;91.17;100341.22;4998769;28;20132;-86
2023/09/19 01:56:16;;;;;;;5.75;2.30;;;;;;;16.06;91.36;100347.91;4995918;28;20033;-86
2023/09/19 01:58:48;;;;;;;9.38;2.58;;;;;;;16.03;90.77;100343.91;5013803;28;20053;-83
2023/09/19 02:01:19;;;;;;;3.72;2.45;;;;;;;16.03;92.06;100354.72;5010855;28;20034;-83
2023/09/19 02:03:47;;;;;;;5.63;2.75;;;;;;;16.03;91.16;100359.31;4997565;28;20367;-86
2023/09/19 02:06:15;;;;;;;5.70;2.58;;;;;;;16.00;91.60;100355.38;5014720;28;20037;-84
2023/09/19 02:08:41;;;;;;;4.85;2.50;;;;;;;15.99;92.30;100351.06;4997204;28;20437;-84
2023/09/19 02:11:06;;;;;;;;;;;;;;;15.98;94.09;100373.78;5011116;28;20497;-84
2023/09/19 02:13:32;;;;;;;5.03;2.47;;;;;;;15.89;94.69;100372.97;4995880;28;19917;-84
2023/09/19 02:15:59;;;;;;;;;;;;;;;15.89;94.90;100381.06;5014246;28;20029;-83
2023/09/19 02:18:26;;;;;;;4.63;2.15;;;;;;;15.84;95.10;100375.81;5011026;28;19922;-85
2023/09/19 02:20:54;;;;;;;8.32;2.95;;;;;;;15.82;94.58;100380.72;5012083;28;20038;-84
2023/09/19 02:23:20;;;;;;;4.90;2.30;;;;;;;15.79;94.05;100381.38;5014839;28;20101;-85
2023/09/19 02:26:00;;;;;;;9.00;2.35;;;;;;;15.73;93.58;100379.91;5005976;28;20032;-85
2023/09/19 02:28:30;;;;;;;6.88;2.17;;;;;;;15.68;93.28;100380.03;5035571;28;20034;-86
2023/09/19 02:30:56;;;;;;;5.75;2.40;;;;;;;15.64;93.49;100379.84;4999355;28;20061;-85
2023/09/19 02:33:22;;;;;;;;;;;;;;;15.61;93.33;100377.75;5015969;28;20121;-86
2023/09/19 02:35:54;;;;;;;5.05;2.30;;;;;;;15.59;92.88;100376.50;5002670;28;19944;-84
2023/09/19 02:38:24;;;;;;;6.35;2.70;;;;;;;15.56;92.28;100388.69;4999242;28;20029;-86
2023/09/19 02:40:50;;;;;;;3.60;2.17;;;;;;;15.55;92.31;100377.09;5019645;28;20033;-84
2023/09/19 02:43:17;;;;;;;2.70;2.17;;;;;;;15.52;92.93;100387.75;5004221;28;20033;-86
2023/09/19 02:45:42;;;;;;;;;;;;;;;15.48;92.90;100381.34;5009873;28;20033;-86
2023/09/19 02:48:08;;;;;;;8.95;2.33;;;;;;;15.42;93.09;100371.81;5020838;28;19935;-83
2023/09/19 02:50:34;;;;;;;;;;;;;;;15.40;92.81;100382.13;5020272;28;20112;-85
2023/09/19 02:52:59;;;;;;;4.80;2.20;;;;;;;15.36;93.48;100394.63;5020440;28;20007;-85
2023/09/19 02:55:25;;;;;;;;;;;;;;;15.30;93.79;100389.34;5017800;28;20102;-84
2023/09/19 02:57:54;;;;;;;6.40;1.88;;;;;;;15.20;93.64;100384.25;5000544;28;19925;-85
2023/09/19 03:00:21;;;;;;;4.63;2.40;;;;;;;15.16;93.96;100385.16;5011625;28;20030;-85
2023/09/19 03:02:48;;;;;;;8.43;2.38;;;;;;;15.18;94.12;100377.56;5020542;28;20048;-83
2023/09/19 03:05:14;;;;;;;7.10;2.35;;;;;;;15.15;94.17;100378.19;5004211;28;20029;-84
2023/09/19 03:07:39;;;;;;;;;;;;;;;15.14;94.28;100387.38;5017276;28;20120;-83
2023/09/19 03:10:09;;;;;;;4.93;2.10;;;;;;;15.11;94.52;100394.19;5019406;28;19985;-82
2023/09/19 03:12:35;;;;;;;5.60;2.17;;;;;;;15.14;94.30;100403.56;5019331;28;20034;-84
2023/09/19 03:15:01;;;;;;;;;;;;;;;15.18;94.10;100404.53;4998602;28;20589;-85
2023/09/19 03:17:28;;;;;;;4.43;1.70;;;;;;;15.14;94.45;100419.75;5034824;28;20373;-84
2023/09/19 03:19:53;;;;;;;;;;;;;;;15.15;94.37;100411.34;5000641;28;20044;-82
2023/09/19 03:22:19;;;;;;;4.13;2.03;;;;;;;15.10;94.31;100406.06;5018834;28;20278;-82
2023/09/19 03:24:46;;;;;;;;;;;;;;;15.14;93.59;100409.75;5019838;28;20486;-82
2023/09/19 03:27:16;;;;;;;5.90;1.73;;;;;;;15.18;93.40;100409.94;5003533;28;19919;-83
2023/09/19 03:29:42;;;;;;;4.28;2.03;;;;;;;15.19;93.40;100400.75;5035059;28;20057;-83
2023/09/19 03:32:11;;;;;;;6.13;2.08;;;;;;;15.23;93.15;100415.19;5002732;28;20037;-83
2023/09/19 03:34:42;;;;;;;6.85;1.95;;;;;;;15.20;93.37;100410.41;4998777;28;20116;-84
2023/09/19 03:37:09;;;;;;;5.45;2.08;;;;;;;15.17;93.13;100413.72;5015648;28;20034;-85
2023/09/19 03:39:35;;;;;;;6.70;2.05;;;;;;;15.13;92.70;100407.38;5011780;28;20442;-85
2023/09/19 03:42:01;;;;;;;;;;;;;;;15.14;92.31;100414.34;5012262;28;20070;-83
2023/09/19 03:44:27;;;;;;;10.13;1.90;;;;;;;15.10;93.13;100407.97;4996690;28;19971;-83
2023/09/19 03:46:52;;;;;;;;;;;;;;;15.10;92.31;100414.16;5017125;28;20080;-82
2023/09/19 03:49:19;;;;;;;8.65;1.70;;;;;;;15.05;93.01;100414.28;5014626;28;19913;-84
2023/09/19 03:51:44;;;;;;;12.10;2.05;;;;;;;14.98;93.28;100419.31;4998232;28;20037;-85
2023/09/19 03:54:10;;;;;;;;;;;;;;;14.94;93.27;100448.78;5015753;28;20042;-84
2023/09/19 03:56:36;;;;;;;5.85;1.67;;;;;;;14.84;93.08;100438.25;5030546;28;20000;-84
2023/09/19 03:59:02;;;;;;;;;;;;;;;14.80;93.54;100442.66;5016693;28;20033;-83
2023/09/19 04:01:30;;;;;;;5.05;1.50;;;;;;;14.75;93.64;100445.44;5010877;28;19921;-84
2023/09/19 04:03:56;;;;;;;4.70;1.60;;;;;;;14.66;93.11;100441.91;5016177;28;20402;-83
2023/09/19 04:06:22;;;;;;;;;;;;;;;14.61;92.45;100456.28;5015176;28;20064;-84
2023/09/19 04:08:48;;;;;;;2.90;1.50;;;;;;;14.51;92.35;100450.31;5001282;28;19921;-86
2023/09/19 04:11:14;;;;;;;3.25;1.40;;;;;;;14.41;91.99;100465.56;5031694;28;20040;-85
2023/09/19 04:13:40;;;;;;;;;;;;;;;14.35;92.28;100458.69;5012820;28;20450;-82
2023/09/19 04:16:06;;;;;;;4.88;1.40;;;;;;;14.29;92.07;100456.38;4998166;28;19952;-86
2023/09/19 04:18:37;;;;;;;5.22;1.35;;;;;;;14.18;92.13;100463.91;5015066;28;20114;-85
2023/09/19 04:21:04;;;;;;;4.20;1.23;;;;;;;14.11;92.42;100466.19;4998969;28;20445;-85
2023/09/19 04:23:30;;;;;;;5.40;1.35;;;;;;;14.04;92.60;100473.88;5013760;28;20062;-84
2023/09/19 04:25:57;;;;;;;4.43;1.10;;;;;;;13.97;92.36;100481.56;4998036;28;20394;-83
2023/09/19 04:28:24;;;;;;;5.97;1.02;;;;;;;13.86;92.14;100478.25;5009506;28;20034;-83
2023/09/19 04:30:50;;;;;;;3.88;1.20;;;;;;;13.77;92.27;100488.91;5014377;28;20033;-83
2023/09/19 04:33:16;;;;;;;3.92;1.30;;;;;;;13.72;91.76;100498.97;4995847;28;20045;-83
2023/09/19 04:35:44;;;;;;;;;;;;;;;13.65;90.53;100489.38;5015057;28;20037;-85
2023/09/19 04:38:11;;;;;;;6.40;1.35;;;;;;;13.70;89.63;100498.47;5015245;28;19913;-85
2023/09/19 04:40:39;;;;;;;4.35;1.15;;;;;;;13.69;90.71;100502.25;5001692;28;20107;-83
2023/09/19 04:43:05;;;;;;;5.43;1.20;;;;;;;13.62;89.70;100500.75;4994433;28;20033;-84
2023/09/19 04:45:31;;;;;;;5.85;1.25;;;;;;;13.64;90.19;100513.88;4997756;28;20450;-84
2023/09/19 04:47:57;;;;;;;;;;;;;;;13.52;89.66;100518.94;5016659;28;20124;-85
2023/09/19 04:50:23;;;;;;;5.78;1.13;;;;;;;13.53;90.36;100523.22;5018307;28;20007;-84
2023/09/19 04:52:50;;;;;;;7.85;1.48;;;;;;;13.51;91.14;100520.03;5031625;28;20037;-83
2023/09/19 04:55:17;;;;;;;4.35;1.13;;;;;;;13.51;90.44;100504.69;5013406;28;20034;-84
2023/09/19 04:57:45;;;;;;;3.75;1.35;;;;;;;13.48;90.60;100516.06;5023634;28;20072;-85
2023/09/19 05:00:19;;;;;;;5.18;1.27;;;;;;;13.47;89.92;100519.00;5011268;28;20030;-83
2023/09/19 05:02:49;;;;;;;5.50;1.40;;;;;;;13.44;90.80;100514.22;5021401;28;20099;-85
2023/09/19 05:05:16;;;;;;;4.90;1.35;;;;;;;13.41;91.13;100517.50;4999059;28;20394;-85
2023/09/19 05:07:43;;;;;;;4.10;1.40;;;;;;;13.35;90.93;100514.91;5015356;28;20033;-84
2023/09/19 05:10:13;;;;;;;3.80;1.05;;;;;;;13.31;91.60;100511.19;5013293;28;20104;-84
2023/09/19 05:12:38;;;;;;;5.03;1.20;;;;;;;13.31;91.02;100513.09;4998213;28;20049;-85
2023/09/19 05:15:06;;;;;;;;;;;;;;;13.30;90.79;100516.88;5012587;28;20032;-84
2023/09/19 05:17:32;;;;;;;7.18;1.42;;;;;;;13.36;90.91;100524.56;4997273;28;19956;-83
2023/09/19 05:19:58;;;;;;;6.53;1.30;;;;;;;13.34;91.40;100532.13;5016299;28;20044;-85
2023/09/19 05:22:26;;;;;;;6.30;1.30;;;;;;;13.35;91.78;100543.69;5016260;28;20386;-85
2023/09/19 05:24:52;;;;;;;3.90;1.30;;;;;;;13.30;92.71;100541.88;5010534;28;20044;-83
2023/09/19 05:27:18;;;;;;;;;;;;;;;13.30;92.07;100541.06;5000239;28;20030;-84
2023/09/19 05:29:44;;;;;;;5.22;1.25;;;;;;;13.28;91.89;100546.75;5044968;28;20290;-83
2023/09/19 05:32:10;;;;;;;9.02;1.23;;;;;;;13.25;92.21;100550.00;5012281;28;20049;-86
2023/09/19 05:34:36;;;;;;;7.18;1.13;;;;;;;13.20;91.89;100557.31;5029963;28;20112;-86
2023/09/19 05:37:02;;;;;;;;;;;;;;;13.23;91.21;100543.34;5013351;28;20824;-85
2023/09/19 05:39:28;;;;;;;5.82;1.35;;;;;;;13.21;91.70;100543.63;5038320;28;19917;-84
2023/09/19 05:41:53;;;;;;;8.05;1.45;;;;;;;13.23;91.07;100546.03;5008509;28;20025;-84
2023/09/19 05:44:19;;;;;;;7.00;1.80;;;;;;;13.23;92.13;100546.81;5029580;28;20052;-82
2023/09/19 05:46:48;;;;;;;4.32;1.30;;;;;;;13.25;90.72;100538.44;5013223;28;20034;-85
2023/09/19 05:49:14;;;;;;;5.00;1.40;;;;;;;13.35;89.63;100539.09;4988997;28;20029;-85
2023/09/19 05:51:39;;;;;;;;;;;;;;;13.45;88.87;100548.09;5019547;28;20033;-84
2023/09/19 05:54:05;;;;;;;11.20;1.83;;;;;;;13.52;87.78;100557.41;5029923;28;19920;-85
2023/09/19 05:56:31;;;;;;;4.13;1.17;;;;;;;13.63;87.73;100553.47;4996728;28;20033;-84
2023/09/19 05:58:56;;;;;;;;;;;;;;;13.69;87.61;100556.88;5017481;28;20539;-83
2023/09/19 06:01:22;;;;;;;7.30;1.30;;;;;;;13.75;87.56;100555.69;5014044;28;19917;-84
2023/09/19 06:03:48;;;;;;;;;;;;;;;13.81;87.24;100551.78;4998054;28;20087;-84
2023/09/19 06:06:14;;;;;;;4.50;1.10;;;;;;;13.88;87.15;100562.97;4992295;28;19913;-84
2023/09/19 06:08:40;;;;;;;7.78;1.55;;;;;;;13.97;86.34;100559.63;5013640;28;20127;-84
2023/09/19 06:11:09;;;;;;;;;;;;;;;14.05;86.40;100548.16;5013754;28;20657;-82
2023/09/19 06:13:35;;;;;;;7.25;1.38;;;;;;;14.13;86.47;100552.84;5011336;28;19920;-85
2023/09/19 06:16:05;;;;;;;6.93;1.75;;;;;;;14.23;85.77;100563.47;5013294;28;20033;-83
2023/09/19 06:18:33;;;;;;;6.63;1.42;;;;;;;14.36;86.06;100556.44;5007710;28;20033;-84
2023/09/19 06:21:00;;;;;;;4.68;1.13;;;;;;;14.47;85.30;100558.69;5013264;28;20038;-84
2023/09/19 06:23:26;;;;;;;10.23;1.60;;;;;;;14.57;84.35;100573.88;5013683;28;20034;-85
2023/09/19 06:25:55;;;;;;;7.63;1.65;;;;;;;14.65;84.90;100569.69;5013396;28;20041;-83
2023/09/19 06:28:24;;;;;;;7.13;1.38;;;;;;;14.68;83.56;100563.66;4993008;28;20171;-83
2023/09/19 06:30:50;;;;;;;5.07;1.33;;;;;;;14.78;84.21;100566.16;5022712;28;20061;-84
2023/09/19 06:33:17;;;;;;;;;;;;;;;14.79;82.60;100569.66;5013406;28;20029;-84
2023/09/19 06:35:46;;;;;;;8.35;1.95;;;;;;;14.79;82.40;100567.75;4999778;28;19920;-84
2023/09/19 06:38:13;;;;;;;9.93;1.60;;;;;;;14.80;82.31;100574.75;5010752;28;20068;-83
2023/09/19 06:40:39;;;;;;;6.45;1.50;;;;;;;14.87;82.74;100574.34;4997204;28;20030;-84
2023/09/19 06:43:05;;;;;;;6.28;1.25;;;;;;;14.92;83.04;100575.03;5013661;28;20029;-85
2023/09/19 06:45:31;;;;;;;;;;;;;;;14.95;82.68;100563.63;5032102;28;20037;-85
2023/09/19 06:47:57;;;;;;;8.13;1.60;;;;;;;14.98;82.67;100576.53;5015923;28;19979;-85
2023/09/19 06:50:23;;;;;;;;;;;;;;;15.07;83.10;100576.59;5012232;28;20029;-84
2023/09/19 06:52:51;;;;;;;7.90;1.50;;;;;;;15.08;82.81;100580.88;4998988;28;19912;-84
2023/09/19 06:55:20;;;;;;;8.65;2.50;;;;;;;15.15;82.32;100577.78;4996840;28;20060;-85
2023/09/19 06:57:46;;;;;;;7.82;1.65;;;;;;;15.17;82.76;100581.78;5013374;28;20474;-84
2023/09/19 07:00:21;;;;;;;7.13;1.50;;;;;;;15.17;82.49;100586.34;5008787;28;20061;-84
2023/09/19 07:03:08;;;;;;;9.95;2.17;;;;;;;15.16;81.89;100584.75;5010607;28;20064;-84
2023/09/19 07:05:37;;;;;;;5.70;1.67;;;;;;;15.15;82.08;100578.56;5012953;28;20551;-85
2023/09/19 07:08:03;;;;;;;7.65;1.80;;;;;;;15.16;81.97;100582.06;4997747;28;20049;-84
2023/09/19 07:10:30;;;;;;;9.07;2.58;;;;;;;15.20;81.68;100591.16;5014616;28;20030;-84
2023/09/19 07:13:08;;;;;;;6.45;1.70;;;;;;;15.24;82.58;100602.91;5035016;28;20033;-83
2023/09/19 07:15:38;;;;;;;5.63;1.65;;;;;;;15.26;82.99;100611.53;5017396;28;20061;-84
2023/09/19 07:18:05;;;;;;;7.63;1.83;;;;;;;15.31;82.40;100608.72;5015205;28;20037;-82
2023/09/19 07:20:32;;;;;;;6.93;1.58;;;;;;;15.36;82.40;100613.97;5017078;28;20029;-85
2023/09/19 07:23:01;;;;;;;10.43;1.92;;;;;;;15.39;81.43;100626.88;5003941;28;20501;-84
2023/09/19 07:25:27;;;;;;;7.18;2.00;;;;;;;15.44;83.39;100620.53;4997166;28;20526;-83
2023/09/19 07:27:55;;;;;;;8.32;2.00;;;;;;;15.45;80.94;100616.78;5001568;28;20037;-85
2023/09/19 07:30:20;;;;;;;5.80;1.75;;;;;;;15.50;81.28;100628.22;5001003;28;20025;-85
2023/09/19 07:32:46;;;;;;;;;;;;;;;15.51;81.00;100618.22;5015537;28;20037;-85
2023/09/19 07:35:12;;;;;;;9.15;1.70;;;;;;;15.50;80.60;100628.22;5015506;28;19936;-84
2023/09/19 07:37:38;;;;;;;;;;;;;;;15.55;81.55;100620.00;5010082;28;20777;-84
2023/09/19 07:40:07;;;;;;;8.23;1.48;;;;;;;15.57;81.41;100617.00;5016040;28;19925;-83
2023/09/19 07:42:35;;;;;;;6.55;2.25;;;;;;;15.66;81.53;100622.53;5031405;28;20110;-83
2023/09/19 07:45:01;;;;;;;7.68;1.77;;;;;;;15.70;83.43;100636.97;4998348;28;20021;-84
2023/09/19 07:47:27;;;;;;;10.23;2.67;;;;;;;15.70;82.73;100642.38;5015141;28;20033;-84
2023/09/19 07:49:53;;;;;;;;;;;;;;;15.66;81.63;100633.31;5016477;28;20379;-83
2023/09/19 07:52:19;;;;;;;9.38;1.77;;;;;;;15.62;81.82;100641.22;5020041;28;19913;-82
2023/09/19 07:54:44;;;;;;;;;;;;;;;15.64;82.60;100640.91;5000466;28;20049;-83
2023/09/19 07:57:11;;;;;;;10.48;2.35;;;;;;;15.59;81.94;100632.91;5017516;28;19919;-83
2023/09/19 07:59:41;;;;;;;7.00;1.70;;;;;;;15.55;82.67;100647.00;5018136;28;20034;-84
2023/09/19 08:02:15;;;;;;;8.95;1.75;;;;;;;15.52;83.37;100658.44;5020341;28;20034;-83
2023/09/19 08:04:43;;;;;;;9.55;2.13;;;;;;;15.49;83.17;100639.31;5032159;28;20029;-83
2023/09/19 08:07:08;;;;;;;7.05;2.05;;;;;;;15.39;81.63;100637.66;4998672;28;20453;-85
2023/09/19 08:09:35;;;;;;;;;;;;;;;15.43;84.59;100643.25;4997400;28;20493;-84
2023/09/19 08:12:03;;;;;;;6.10;1.63;;;;;;;15.40;85.12;100639.25;5013497;28;19916;-84
2023/09/19 08:14:29;;;;;;;5.85;1.88;;;;;;;15.38;84.88;100646.88;5000072;28;20065;-82
2023/09/19 08:16:58;;;;;;;;;;;;;;;15.44;85.39;100655.63;4997499;28;20068;-84
2023/09/19 08:19:28;;;;;;;6.93;1.83;;;;;;;15.41;84.83;100650.84;4997142;28;19957;-82
2023/09/19 08:21:58;;;;;;;9.75;2.10;;;;;;;15.47;83.44;100647.72;4999787;28;20088;-85
2023/09/19 08:24:34;;;;;;;8.20;1.95;;;;;;;15.45;81.45;100647.25;5028065;28;20690;-84
2023/09/19 08:27:00;;;;;;;6.97;1.80;;;;;;;15.51;81.11;100658.72;5029468;28;20240;-83
2023/09/19 08:29:27;;;;;;;;;;;;;;;15.54;80.62;100653.50;5016159;28;20033;-84
2023/09/19 08:31:59;;;;;;;6.78;1.73;;;;;;;15.59;81.51;100641.81;5016634;28;19913;-84
2023/09/19 08:34:25;;;;;;;7.20;1.63;;;;;;;15.61;80.74;100645.00;5016429;28;20171;-84
2023/09/19 08:36:56;;;;;;;11.20;2.95;;;;;;;15.67;80.24;100656.50;5004117;28;20502;-84
2023/09/19 08:39:25;;;;;;;6.00;2.00;;;;;;;15.72;82.94;100659.09;5011944;28;20441;-84
2023/09/19 08:41:59;;;;;;;10.95;2.13;;;;;;;15.70;79.43;100647.78;5013975;28;20048;-83
2023/09/19 08:44:25;;;;;;;8.73;1.77;;;;;;;15.75;79.68;100653.06;5015523;28;20030;-85
2023/09/19 08:46:55;;;;;;;6.57;1.77;;;;;;;15.77;80.15;100653.56;5015751;28;20044;-85
2023/09/19 08:49:41;;;;;;;7.72;2.10;;;;;;;15.73;78.34;100653.38;5000410;28;20643;-82
2023/09/19 08:52:28;;;;;;;6.43;1.70;;;;;;;15.77;78.94;100653.56;5033694;28;20848;-86
2023/09/19 08:55:04;;;;;;;7.10;1.73;;;;;;;15.84;81.02;100653.91;5004673;28;20076;-86
2023/09/19 08:57:37;;;;;;;11.05;1.80;;;;;;;15.89;79.45;100651.09;5017819;28;20482;-82
2023/09/19 09:00:09;;;;;;;9.98;2.00;;;;;;;15.96;79.72;100654.16;5013423;28;20038;-84
2023/09/19 09:02:40;;;;;;;7.88;2.17;;;;;;;16.01;78.86;100645.16;5012255;28;20034;-85
2023/09/19 09:05:09;;;;;;;9.45;2.33;;;;;;;16.06;79.57;100651.25;5019521;28;20386;-86
2023/09/19 09:07:37;;;;;;;9.68;1.85;;;;;;;16.09;77.84;100650.59;5013773;28;20445;-86
2023/09/19 09:10:03;;;;;;;5.55;1.83;;;;;;;16.11;77.42;100644.88;5016506;28;20035;-84
2023/09/19 09:12:30;;;;;;;6.00;1.63;;;;;;;16.19;79.31;100649.56;5000659;28;20112;-86
2023/09/19 09:14:57;;;;;;;9.68;2.03;;;;;;;16.24;77.90;100659.44;4998622;28;20045;-86
2023/09/19 09:17:24;;;;;;;8.50;1.90;;;;;;;16.23;75.90;100661.34;5016106;28;20048;-86
2023/09/19 09:19:53;;;;;;;6.90;1.67;;;;;;;16.27;78.67;100667.72;5001226;28;20117;-87
2023/09/19 09:22:21;;;;;;;10.23;1.90;;;;;;;16.29;77.45;100664.72;5015945;28;20035;-85
2023/09/19 09:24:54;;;;;;;8.40;1.90;;;;;;;16.29;74.86;100668.22;5014691;28;20033;-86
2023/09/19 09:27:23;;;;;;;6.28;1.70;;;;;;;16.38;75.17;100657.44;5025186;28;20465;-86
2023/09/19 09:29:51;;;;;;;7.85;2.00;;;;;;;16.46;76.11;100656.72;5025642;28;20037;-86
2023/09/19 09:32:22;;;;;;;7.03;1.70;;;;;;;16.55;75.56;100651.34;5023515;28;20029;-85
2023/09/19 09:34:53;;;;;;;5.22;1.55;;;;;;;16.64;75.25;100657.56;5032771;28;20037;-86
2023/09/19 09:37:22;;;;;;;7.78;1.80;;;;;;;16.72;74.10;100651.41;5005906;28;20037;-86
2023/09/19 09:39:58;;;;;;;8.85;1.73;;;;;;;16.83;74.43;100657.34;5020600;28;20427;-85
2023/09/19 09:42:32;;;;;;;8.75;1.70;;;;;;;16.92;73.48;100660.88;5012130;28;20030;-86
2023/09/19 09:45:22;;;;;;;9.20;1.80;;;;;;;17.01;75.48;100653.59;5015340;28;20048;-84
2023/09/19 09:47:55;;;;;;;8.50;2.10;;;;;;;17.09;74.14;100658.22;5000211;28;20056;-85
2023/09/19 09:50:50;;;;;;;10.50;1.55;;;;;;;17.16;72.93;100658.56;5029176;28;20052;-86
2023/09/19 09:53:32;;;;;;;6.65;1.40;;;;;;;17.33;75.59;100654.28;5031445;28;20045;-86
2023/09/19 09:56:05;;;;;;;11.05;1.88;;;;;;;17.38;73.78;100657.63;5011473;28;20045;-85
2023/09/19 09:58:49;;;;;;;8.10;1.85;;;;;;;17.46;74.30;100659.53;5015979;28;20033;-86
2023/09/19 10:01:15;;;;;;;5.22;1.60;;;;;;;17.48;71.30;100653.84;4999042;28;20036;-85
2023/09/19 10:03:51;;;;;;;6.00;1.33;;;;;;;17.58;71.85;100666.25;5015248;28;20037;-85
2023/09/19 10:09:11;;;;;;;7.00;1.30;;;;;;;17.63;71.93;100657.97;5014907;28;20076;-85
2023/09/19 10:11:45;;;;;;;6.00;1.60;;;;;;;17.64;68.80;100654.94;5031734;28;20037;-86
2023/09/19 10:14:24;;;;;;;7.10;1.40;;;;;;;17.73;69.77;100655.75;4996194;28;20405;-87
2023/09/19 10:16:53;;;;;;;9.35;1.45;;;;;;;17.74;68.81;100657.34;5009463;28;20041;-87
2023/09/19 10:19:57;;;;;;;6.78;1.83;;;;;;;17.79;67.82;100652.88;5029683;28;20045;-85
2023/09/19 10:22:24;;;;;;;8.50;1.80;;;;;;;17.77;66.86;100652.41;4998975;28;20056;-86
2023/09/19 10:24:53;;;;;;;6.50;1.23;;;;;;;17.80;71.58;100670.72;4998510;28;20088;-86
2023/09/19 10:27:26;;;;;;;9.00;1.55;;;;;;;17.78;67.90;100675.69;5000277;28;20724;-85
2023/09/19 10:29:56;;;;;;;8.88;2.33;;;;;;;17.82;67.37;100676.63;5013011;28;20058;-86
2023/09/19 10:32:33;;;;;;;7.07;1.50;;;;;;;17.81;67.46;100675.81;4998374;28;20391;-86
2023/09/19 10:35:04;;;;;;;7.45;1.58;;;;;;;17.86;69.46;100669.44;5015525;28;20037;-86
2023/09/19 10:37:32;;;;;;;7.80;1.45;;;;;;;17.86;69.80;100680.28;5016701;28;20645;-87
2023/09/19 10:39:58;;;;;;;7.68;1.88;;;;;;;17.87;67.41;100657.50;5029174;28;20061;-84
2023/09/19 10:42:28;;;;;;;12.18;1.48;;;;;;;17.86;67.18;100661.31;5014267;28;20041;-85
2023/09/19 10:45:00;;;;;;;8.45;1.45;;;;;;;17.88;67.48;100664.50;5014013;28;20807;-82
2023/09/19 10:47:30;;;;;;;10.00;1.70;;;;;;;17.88;66.76;100664.50;5018189;28;20069;-83
2023/09/19 10:49:57;;;;;;;5.10;1.27;;;;;;;17.91;66.43;100670.09;5002678;28;20040;-83
2023/09/19 10:52:26;;;;;;;6.38;1.58;;;;;;;17.88;66.16;100661.78;5018631;28;20072;-86
2023/09/19 10:54:57;;;;;;;5.03;1.55;;;;;;;17.82;66.60;100657.69;5018499;28;20042;-85
2023/09/19 10:57:24;;;;;;;8.43;1.40;;;;;;;17.74;64.03;100667.38;5014556;28;21017;-85
2023/09/19 11:00:28;;;;;;;6.90;1.40;;;;;;;17.72;64.64;100659.56;5020502;28;20490;-84
2023/09/19 11:03:22;;;;;;;8.10;1.60;;;;;;;17.70;64.99;100655.56;5016329;28;20080;-86
2023/09/19 11:06:10;;;;;;;7.30;1.50;;;;;;;17.67;65.60;100665.13;5014707;28;20132;-84
2023/09/19 11:09:23;;;;;;;6.05;1.20;;;;;;;17.69;68.32;100667.53;5019224;28;20102;-84
2023/09/19 11:11:57;;;;;;;7.78;1.55;;;;;;;17.77;69.06;100663.25;5039289;28;20040;-84
2023/09/19 11:14:24;;;;;;;10.98;1.60;;;;;;;17.86;66.22;100672.16;5005250;28;20046;-81
2023/09/19 11:17:15;;;;;;;6.93;1.33;;;;;;;17.94;67.71;100668.66;5034531;28;20052;-87
2023/09/19 11:22:56;;;;;;;5.25;1.33;;;;;;;18.04;67.40;100675.66;5016258;28;20034;-86
2023/09/19 11:25:39;;;;;;;6.00;1.35;;;;;;;17.98;63.51;100664.97;5048256;28;20034;-86
2023/09/19 11:30:48;;;;;;;9.02;1.67;;;;;;;17.86;63.89;100655.91;5024669;28;20470;-86
2023/09/19 11:33:38;;;;;;;7.80;1.75;;;;;;;17.96;65.75;100677.25;5016561;28;20072;-88
2023/09/19 11:36:18;;;;;;;4.20;1.27;;;;;;;18.01;65.37;100668.94;5024270;28;20565;-87
2023/09/19 11:38:49;;;;;;;5.53;1.30;;;;;;;18.04;62.93;100662.91;5020375;28;20064;-86
2023/09/19 11:41:29;;;;;;;5.47;1.20;;;;;;;18.00;64.17;100679.00;5030459;28;20034;-87
2023/09/19 11:44:14;;;;;;;7.35;1.75;;;;;;;17.94;62.93;100674.06;5006776;28;20109;-87
2023/09/19 11:47:01;;;;;;;4.05;1.23;;;;;;;17.90;64.93;100662.28;5002354;28;20095;-86
2023/09/19 11:49:32;;;;;;;6.35;1.30;;;;;;;17.86;63.89;100666.75;5017794;28;20025;-85
2023/09/19 11:52:09;;;;;;;5.05;1.73;;;;;;;17.87;65.03;100668.34;5021246;28;20118;-88
2023/09/19 11:54:47;;;;;;;8.93;1.65;;;;;;;17.89;64.12;100674.25;5021959;28;20069;-87
2023/09/19 11:57:22;;;;;;;5.60;1.42;;;;;;;17.87;64.83;100671.84;5020439;28;20037;-87